createdAt,value
2018-12-26T00:02:56.353Z,101777.56
2018-12-26T00:07:58.217Z,101766.20
2018-12-26T00:13:00.056Z,101769.89
2018-12-26T00:18:01.899Z,101760.34
2018-12-26T00:23:03.811Z,101759.94
2018-12-26T00:28:05.646Z,101759.94
2018-12-26T00:33:07.580Z,101748.87
2018-12-26T00:38:09.440Z,101755.45
2018-12-26T00:43:11.504Z,101755.17
2018-12-26T00:48:13.505Z,101757.11
2018-12-26T00:53:15.642Z,101757.11
2018-12-26T00:58:17.676Z,101758.72
2018-12-26T01:03:19.727Z,101753.31
2018-12-26T01:08:23.060Z,101753.31
2018-12-26T01:13:25.900Z,101727.06
2018-12-26T01:18:28.392Z,101725.75
2018-12-26T01:23:30.482Z,101733.27
2018-12-26T01:28:32.327Z,101730.47
2018-12-26T01:33:34.262Z,101739.41
2018-12-26T01:38:36.467Z,101739.41
2018-12-26T01:43:38.343Z,101756.55
2018-12-26T01:48:40.683Z,101756.55
2018-12-26T01:53:42.603Z,101752.90
2018-12-26T01:58:44.427Z,101757.86
2018-12-26T02:03:46.257Z,101762.03
2018-12-26T02:08:48.279Z,101763.77
2018-12-26T02:13:50.132Z,101766.77
2018-12-26T02:18:52.038Z,101763.66
2018-12-26T02:23:53.944Z,101767.45
2018-12-26T02:28:56.795Z,101776.09
2018-12-26T02:33:58.740Z,101756.83
2018-12-26T02:39:00.818Z,101757.76
2018-12-26T02:44:03.040Z,101754.23
2018-12-26T02:49:04.913Z,101768.27
2018-12-26T02:54:06.815Z,101766.56
2018-12-26T02:59:08.777Z,101769.94
2018-12-26T03:04:11.624Z,101769.94
2018-12-26T03:09:13.491Z,101755.84
2018-12-26T03:14:15.459Z,101749.02
2018-12-26T03:19:17.382Z,101753.15
2018-12-26T03:24:19.356Z,101720.28
2018-12-26T03:29:21.199Z,101720.28
2018-12-26T03:34:23.313Z,101724.45
2018-12-26T03:39:25.568Z,101726.02
2018-12-26T03:44:28.337Z,101738.80
2018-12-26T03:49:30.511Z,101727.99
2018-12-26T03:54:32.840Z,101709.42
2018-12-26T03:59:35.043Z,101717.25
2018-12-26T04:04:37.509Z,101711.44
2018-12-26T04:09:39.599Z,101711.44
2018-12-26T04:14:41.759Z,101698.59
2018-12-26T04:19:43.778Z,101698.59
2018-12-26T04:24:47.262Z,101724.40
2018-12-26T04:29:49.110Z,101727.88
2018-12-26T04:34:51.065Z,101723.75
2018-12-26T04:39:53.205Z,101720.25
2018-12-26T04:44:55.983Z,101693.51
2018-12-26T04:49:58.166Z,101693.51
2018-12-26T04:55:00.058Z,101691.83
2018-12-26T05:00:03.044Z,101704.13
2018-12-26T05:05:05.039Z,101695.86
2018-12-26T05:10:18.578Z,101707.85
2018-12-26T05:15:20.526Z,101710.53
2018-12-26T05:20:22.417Z,101711.23
2018-12-26T05:25:24.503Z,101709.42
2018-12-26T05:30:27.658Z,101714.87
2018-12-26T05:35:29.634Z,101704.89
2018-12-26T05:40:31.583Z,101697.35
2018-12-26T05:45:33.531Z,101698.33
2018-12-26T05:50:35.487Z,101686.52
2018-12-26T05:55:37.343Z,101679.55
2018-12-26T06:00:39.201Z,101681.36
2018-12-26T06:05:41.363Z,101670.87
2018-12-26T06:10:45.533Z,101683.11
2018-12-26T06:15:47.433Z,101682.69
2018-12-26T06:20:49.663Z,101685.35
2018-12-26T06:25:51.521Z,101688.23
2018-12-26T06:30:53.385Z,101674.70
2018-12-26T06:35:55.567Z,101679.52
2018-12-26T06:40:57.536Z,101684.59
2018-12-26T06:45:59.376Z,101678.30
2018-12-26T06:51:01.293Z,101679.92
2018-12-26T06:56:03.180Z,101675.84
2018-12-26T07:01:05.066Z,101692.76
2018-12-26T07:06:06.916Z,101687.93
2018-12-26T07:11:08.786Z,101680.52
2018-12-26T07:16:10.650Z,101685.45
2018-12-26T07:21:12.566Z,101678.64
2018-12-26T07:26:14.434Z,101688.41
2018-12-26T07:31:16.314Z,101684.80
2018-12-26T07:36:18.180Z,101682.52
2018-12-26T07:41:20.076Z,101681.39
2018-12-26T07:46:21.934Z,101693.09
2018-12-26T07:51:23.808Z,101692.42
2018-12-26T07:56:25.712Z,101690.62
2018-12-26T08:01:27.564Z,101683.56
2018-12-26T08:06:29.411Z,101690.12
2018-12-26T08:11:31.375Z,101693.73
2018-12-26T08:16:33.633Z,101700.02
2018-12-26T08:21:35.506Z,101711.43
2018-12-26T08:26:37.386Z,101701.15
2018-12-26T08:31:39.268Z,101699.55
2018-12-26T08:36:41.124Z,101701.23
2018-12-26T08:41:43.032Z,101708.08
2018-12-26T08:46:44.896Z,101703.61
2018-12-26T08:51:46.762Z,101695.24
2018-12-26T08:56:48.820Z,101705.91
2018-12-26T09:01:50.691Z,101706.48
2018-12-26T09:06:52.540Z,101702.39
2018-12-26T09:11:54.752Z,101696.30
2018-12-26T09:16:56.652Z,101699.34
2018-12-26T09:21:58.550Z,101707.81
2018-12-26T09:27:01.081Z,101702.00
2018-12-26T09:32:03.023Z,101704.08
2018-12-26T09:37:04.894Z,101719.59
2018-12-26T09:42:08.812Z,101704.48
2018-12-26T09:47:10.680Z,101711.80
2018-12-26T09:52:12.675Z,101702.27
2018-12-26T09:57:14.740Z,101702.48
2018-12-26T10:02:16.691Z,101698.97
2018-12-26T10:07:18.652Z,101700.50
2018-12-26T10:12:20.635Z,101696.02
2018-12-26T10:17:22.634Z,101699.27
2018-12-26T10:22:24.612Z,101700.67
2018-12-26T10:27:26.616Z,101697.44
2018-12-26T10:32:28.491Z,101697.53
2018-12-26T10:37:30.425Z,101695.34
2018-12-26T10:42:33.306Z,101686.58
2018-12-26T10:47:36.474Z,101685.55
2018-12-26T10:52:38.425Z,101684.88
2018-12-26T10:57:40.347Z,101686.70
2018-12-26T11:02:42.244Z,101682.62
2018-12-26T11:07:44.160Z,101681.77
2018-12-26T11:12:46.132Z,101683.55
2018-12-26T11:17:48.110Z,101674.73
2018-12-26T11:22:50.043Z,101664.56
2018-12-26T11:27:52.992Z,101657.23
2018-12-26T11:32:55.006Z,101647.16
2018-12-26T11:37:56.945Z,101642.01
2018-12-26T11:42:58.908Z,101639.45
2018-12-26T11:48:00.774Z,101636.80
2018-12-26T11:53:02.711Z,101634.04
2018-12-26T11:58:04.694Z,101631.17
2018-12-26T12:03:06.895Z,101642.78
2018-12-26T12:08:08.841Z,101622.59
2018-12-26T12:13:10.780Z,101638.58
2018-12-26T12:18:12.695Z,101643.50
2018-12-26T12:23:15.639Z,101644.36
2018-12-26T12:28:17.660Z,101633.25
2018-12-26T12:33:19.750Z,101629.85
2018-12-26T12:38:21.699Z,101635.73
2018-12-26T12:43:23.646Z,101631.45
2018-12-26T12:48:25.732Z,101628.58
2018-12-26T12:53:27.559Z,101622.48
2018-12-26T12:58:29.439Z,101620.65
2018-12-26T13:03:31.428Z,101608.44
2018-12-26T13:08:33.270Z,101607.27
2018-12-26T13:13:35.213Z,101616.87
2018-12-26T13:18:37.158Z,101612.77
2018-12-26T13:23:39.045Z,101614.62
2018-12-26T13:28:40.922Z,101608.69
2018-12-26T13:33:43.214Z,101617.25
2018-12-26T13:38:45.902Z,101610.91
2018-12-26T13:43:48.080Z,101596.45
2018-12-26T13:48:50.122Z,101604.33
2018-12-26T13:53:51.984Z,101604.33
2018-12-26T13:58:54.000Z,101606.10
2018-12-26T14:03:56.060Z,101613.41
2018-12-26T14:08:57.919Z,101614.53
2018-12-26T14:13:59.844Z,101618.70
2018-12-26T14:19:01.820Z,101621.04
2018-12-26T14:24:03.673Z,101622.25
2018-12-26T14:29:05.791Z,101613.13
2018-12-26T14:34:07.621Z,101613.13
2018-12-26T14:39:09.625Z,101614.54
2018-12-26T14:44:11.530Z,101615.98
2018-12-26T14:49:13.409Z,101613.11
2018-12-26T14:54:15.254Z,101607.98
2018-12-26T14:59:18.296Z,101620.08
2018-12-26T15:04:20.714Z,101623.50
2018-12-26T15:09:23.050Z,101617.20
2018-12-26T15:14:25.230Z,101617.13
2018-12-26T15:19:27.410Z,101606.99
2018-12-26T15:24:29.667Z,101603.09
2018-12-26T15:29:31.704Z,101603.09
2018-12-26T15:34:34.188Z,101590.53
2018-12-26T15:39:36.345Z,101590.53
2018-12-26T15:44:38.286Z,101587.02
2018-12-26T15:49:41.534Z,101590.77
2018-12-26T15:54:43.613Z,101590.77
2018-12-26T15:59:45.715Z,101606.97
2018-12-26T16:04:47.964Z,101605.00
2018-12-26T16:09:50.313Z,101605.44
2018-12-26T16:14:52.512Z,101605.44
2018-12-26T16:19:54.399Z,101601.92
2018-12-26T16:24:56.779Z,101604.72
2018-12-26T16:29:59.697Z,101616.59
2018-12-26T16:35:01.713Z,101616.59
2018-12-26T16:40:05.590Z,101619.64
2018-12-26T16:45:07.556Z,101622.48
2018-12-26T16:50:09.426Z,101611.78
2018-12-26T16:55:11.395Z,101622.57
2018-12-26T17:00:14.999Z,101622.70
2018-12-26T17:05:17.125Z,101621.59
2018-12-26T17:10:19.171Z,101623.48
2018-12-26T17:15:21.344Z,101616.30
2018-12-26T17:20:24.270Z,101616.30
2018-12-26T17:25:29.121Z,101612.02
2018-12-26T17:30:31.050Z,101624.30
2018-12-26T17:35:32.922Z,101621.15
2018-12-26T17:40:34.795Z,101641.10
2018-12-26T17:45:37.019Z,101628.97
2018-12-26T17:50:44.497Z,101640.60
2018-12-26T17:55:57.259Z,101630.02
2018-12-26T18:01:12.856Z,101645.39
2018-12-26T18:06:11.687Z,101647.88
2018-12-26T18:11:13.917Z,101646.49
2018-12-26T18:16:17.928Z,101646.49
2018-12-26T18:21:20.936Z,101649.95
2018-12-26T18:26:23.159Z,101651.45
2018-12-26T18:31:25.123Z,101650.12
2018-12-26T18:36:27.091Z,101645.59
2018-12-26T18:41:28.932Z,101644.23
2018-12-26T18:46:30.792Z,101641.10
2018-12-26T18:51:32.672Z,101650.21
2018-12-26T18:56:34.511Z,101641.09
2018-12-26T19:01:36.400Z,101641.62
2018-12-26T19:06:38.371Z,101650.03
